createdAt,value
2018-01-21T00:00:35.892Z,32.40
2018-01-21T00:03:02.844Z,28.20
2018-01-21T00:05:29.896Z,30.00
2018-01-21T00:07:56.887Z,27.07
2018-01-21T00:10:23.174Z,30.80
2018-01-21T00:12:50.300Z,27.70
2018-01-21T00:15:17.734Z,28.33
2018-01-21T00:17:43.955Z,33.07
2018-01-21T00:20:10.167Z,26.97
2018-01-21T00:22:40.377Z,28.63
2018-01-21T00:25:06.599Z,29.43
2018-01-21T00:27:32.852Z,30.17
2018-01-21T00:29:59.073Z,31.90
2018-01-21T00:32:25.332Z,27.37
2018-01-21T00:34:52.348Z,33.57
2018-01-21T00:37:18.605Z,29.53
2018-01-21T00:39:44.864Z,29.63
2018-01-21T00:42:11.136Z,28.23
2018-01-21T00:44:37.384Z,30.83
2018-01-21T00:47:03.660Z,27.07
2018-01-21T00:49:30.637Z,28.83
2018-01-21T00:51:56.944Z,31.87
2018-01-21T00:54:23.906Z,27.90
2018-01-21T00:56:50.163Z,29.00
2018-01-21T00:59:16.484Z,25.70
2018-01-21T01:01:42.769Z,35.93
2018-01-21T01:04:09.019Z,28.53
2018-01-21T01:06:35.981Z,26.53
2018-01-21T01:09:02.269Z,32.10
2018-01-21T01:11:28.501Z,30.97
2018-01-21T01:13:54.741Z,27.43
2018-01-21T01:16:21.747Z,25.93
2018-01-21T01:18:47.968Z,31.53
2018-01-21T01:21:14.840Z,30.10
2018-01-21T01:23:41.081Z,31.43
2018-01-21T01:26:07.343Z,34.20
2018-01-21T01:28:33.584Z,29.60
2018-01-21T01:30:59.787Z,27.43
2018-01-21T01:33:26.756Z,26.60
2018-01-21T01:35:53.000Z,31.37
2018-01-21T01:38:19.263Z,33.20
2018-01-21T01:40:45.728Z,30.50
2018-01-21T01:43:12.781Z,29.60
2018-01-21T01:45:38.992Z,29.53
2018-01-21T01:48:05.939Z,31.30
2018-01-21T01:50:32.912Z,27.40
2018-01-21T01:52:59.142Z,32.37
2018-01-21T01:55:25.368Z,29.60
2018-01-21T01:57:51.621Z,31.00
2018-01-21T02:00:17.867Z,29.17
2018-01-21T02:02:44.075Z,31.00
2018-01-21T02:05:10.333Z,31.10
2018-01-21T02:07:36.558Z,33.10
2018-01-21T02:10:02.985Z,31.40
2018-01-21T02:12:29.195Z,31.70
2018-01-21T02:14:55.398Z,32.50
2018-01-21T02:17:21.639Z,30.70
2018-01-21T02:19:47.838Z,29.93
2018-01-21T02:22:14.786Z,29.67
2018-01-21T02:24:41.719Z,28.47
2018-01-21T02:27:07.952Z,28.30
2018-01-21T02:29:34.917Z,28.97
2018-01-21T02:32:01.905Z,28.93
2018-01-21T02:34:28.117Z,30.00
2018-01-21T02:36:54.416Z,27.90
2018-01-21T02:39:21.380Z,30.43
2018-01-21T02:41:47.646Z,34.53
2018-01-21T02:44:13.856Z,32.87
2018-01-21T02:46:40.081Z,30.10
2018-01-21T02:49:07.162Z,32.80
2018-01-21T02:51:33.426Z,31.17
2018-01-21T02:54:00.413Z,28.20
2018-01-21T02:56:26.647Z,29.87
2018-01-21T02:58:52.882Z,29.20
2018-01-21T03:01:19.126Z,28.57
2018-01-21T03:03:45.371Z,28.83
2018-01-21T03:06:11.636Z,30.00
2018-01-21T03:08:37.902Z,28.53
2018-01-21T03:11:04.216Z,27.20
2018-01-21T03:13:32.303Z,32.77
2018-01-21T03:15:58.511Z,31.50
2018-01-21T03:18:24.749Z,28.93
2018-01-21T03:20:50.986Z,28.50
2018-01-21T03:23:17.227Z,26.60
2018-01-21T03:25:43.594Z,26.17
2018-01-21T03:28:10.575Z,29.87
2018-01-21T03:30:36.784Z,26.27
2018-01-21T03:33:04.180Z,24.87
2018-01-21T03:35:30.384Z,27.20
2018-01-21T03:37:56.601Z,28.90
2018-01-21T03:40:23.136Z,26.23
2018-01-21T03:42:50.356Z,31.50
2018-01-21T03:45:17.340Z,27.40
2018-01-21T03:47:43.570Z,26.63
2018-01-21T03:50:10.374Z,25.40
2018-01-21T03:52:36.625Z,29.50
2018-01-21T03:55:02.894Z,27.53
2018-01-21T03:57:29.116Z,25.40
2018-01-21T03:59:55.394Z,25.37
2018-01-21T04:02:21.600Z,24.40
2018-01-21T04:04:47.806Z,25.37
2018-01-21T04:07:14.035Z,26.40
2018-01-21T04:09:40.266Z,24.07
2018-01-21T04:12:06.510Z,25.90
2018-01-21T04:14:32.751Z,23.97
2018-01-21T04:16:58.983Z,25.53
2018-01-21T04:19:25.195Z,26.87
2018-01-21T04:21:51.567Z,25.80
2018-01-21T04:24:17.755Z,25.63
2018-01-21T04:26:43.977Z,24.90
2018-01-21T04:29:10.213Z,25.57
2018-01-21T04:31:36.443Z,25.17
2018-01-21T04:34:02.683Z,25.63
2018-01-21T04:36:28.907Z,28.57
2018-01-21T04:38:55.147Z,26.33
2018-01-21T04:41:21.396Z,26.37
2018-01-21T04:43:47.635Z,28.50
2018-01-21T04:46:13.851Z,26.40
2018-01-21T04:48:40.115Z,29.20
2018-01-21T04:51:06.401Z,24.70
2018-01-21T04:53:32.907Z,25.50
2018-01-21T04:55:59.137Z,22.70
2018-01-21T04:58:25.372Z,21.23
2018-01-21T05:00:51.650Z,23.83
2018-01-21T05:03:18.629Z,24.70
2018-01-21T05:05:44.902Z,23.87
2018-01-21T05:08:11.097Z,28.70
2018-01-21T05:10:37.336Z,24.83
2018-01-21T05:13:03.566Z,25.13
2018-01-21T05:15:29.810Z,23.97
2018-01-21T05:17:56.042Z,25.33
2018-01-21T05:20:22.236Z,25.33
2018-01-21T05:22:48.470Z,27.60
2018-01-21T05:25:14.692Z,25.37
2018-01-21T05:27:41.684Z,25.23
2018-01-21T05:30:08.688Z,24.97
2018-01-21T05:32:34.915Z,24.60
2018-01-21T05:35:01.176Z,24.67
2018-01-21T05:37:27.410Z,24.47
2018-01-21T05:39:54.384Z,29.23
2018-01-21T05:42:20.645Z,27.07
2018-01-21T05:44:46.897Z,24.97
2018-01-21T05:47:13.127Z,24.17
2018-01-21T05:49:39.337Z,31.50
2018-01-21T05:52:05.569Z,23.10
2018-01-21T05:54:31.824Z,25.23
2018-01-21T05:56:58.835Z,28.90
2018-01-21T05:59:25.081Z,28.40
2018-01-21T06:01:51.395Z,26.43
2018-01-21T06:04:17.639Z,25.80
2018-01-21T06:06:43.859Z,21.97
2018-01-21T06:09:10.096Z,28.40
2018-01-21T06:11:36.356Z,29.30
2018-01-21T06:14:02.622Z,31.13
2018-01-21T06:16:28.869Z,22.23
2018-01-21T06:18:55.125Z,26.60
2018-01-21T06:21:21.368Z,26.87
2018-01-21T06:23:47.607Z,30.53
2018-01-21T06:26:14.602Z,32.67
2018-01-21T06:28:40.844Z,27.97
2018-01-21T06:31:14.213Z,40.50
2018-01-21T06:33:40.448Z,32.20
2018-01-21T06:36:06.715Z,29.77
2018-01-21T06:38:33.042Z,34.83
2018-01-21T06:40:59.280Z,35.43
2018-01-21T06:43:26.300Z,32.83
2018-01-21T06:45:52.582Z,35.63
2018-01-21T06:48:18.953Z,32.80
2018-01-21T06:50:45.268Z,37.60
2018-01-21T06:53:11.584Z,35.57
2018-01-21T06:55:38.932Z,34.20
2018-01-21T06:58:05.286Z,34.80
2018-01-21T07:00:31.514Z,35.47
2018-01-21T07:02:57.846Z,29.67
2018-01-21T07:05:24.086Z,32.90
2018-01-21T07:07:50.412Z,35.97
2018-01-21T07:10:16.704Z,33.67
2018-01-21T07:12:43.979Z,29.53
2018-01-21T07:15:10.246Z,33.50
2018-01-21T07:17:36.519Z,37.00
2018-01-21T07:20:02.791Z,31.10
2018-01-21T07:22:29.017Z,33.13
2018-01-21T07:24:55.274Z,39.00
2018-01-21T07:27:21.499Z,33.03
2018-01-21T07:29:47.779Z,34.23
2018-01-21T07:32:14.799Z,32.57
2018-01-21T07:34:41.251Z,33.53
2018-01-21T07:37:08.724Z,35.10
2018-01-21T07:39:34.993Z,30.00
2018-01-21T07:42:01.252Z,31.03
2018-01-21T07:44:27.463Z,34.93
2018-01-21T07:46:53.732Z,36.60
2018-01-21T07:49:20.770Z,29.20
2018-01-21T07:51:47.800Z,29.23
2018-01-21T07:54:15.074Z,29.20
2018-01-21T07:56:41.339Z,35.30
2018-01-21T07:59:08.385Z,33.93
2018-01-21T08:01:34.723Z,28.17
2018-01-21T08:04:01.107Z,36.17
2018-01-21T08:06:27.417Z,28.20
2018-01-21T08:08:53.647Z,33.90
2018-01-21T08:11:19.973Z,28.23
2018-01-21T08:13:46.271Z,32.50
2018-01-21T08:16:12.599Z,29.13
2018-01-21T08:18:38.861Z,28.70
2018-01-21T08:21:05.191Z,28.50
2018-01-21T08:23:31.563Z,33.50
2018-01-21T08:25:58.524Z,29.07
2018-01-21T08:28:25.572Z,33.87
2018-01-21T08:30:52.546Z,31.10
2018-01-21T08:33:18.827Z,29.67
2018-01-21T08:35:51.203Z,34.40
2018-01-21T08:38:24.434Z,30.33
2018-01-21T08:40:56.871Z,29.63
2018-01-21T08:43:23.943Z,32.10
2018-01-21T08:45:50.171Z,28.47
2018-01-21T08:48:16.500Z,31.50
2018-01-21T08:50:42.776Z,35.03
2018-01-21T08:53:09.039Z,29.37
2018-01-21T08:55:36.053Z,33.20
2018-01-21T08:58:02.284Z,30.27
2018-01-21T09:00:29.251Z,32.83
2018-01-21T09:02:55.515Z,29.90
2018-01-21T09:05:21.788Z,33.13
2018-01-21T09:07:48.042Z,37.50
2018-01-21T09:10:14.266Z,46.43
2018-01-21T09:12:40.566Z,34.83
2018-01-21T09:15:06.814Z,31.20
2018-01-21T09:17:33.226Z,30.70
2018-01-21T09:19:59.520Z,38.00
2018-01-21T09:22:26.124Z,29.07
2018-01-21T09:24:52.433Z,31.87
2018-01-21T09:27:18.699Z,30.43
2018-01-21T09:29:45.739Z,33.47
2018-01-21T09:32:12.629Z,32.47
2018-01-21T09:34:38.959Z,31.93
2018-01-21T09:37:06.196Z,32.70
2018-01-21T09:39:32.423Z,32.93
2018-01-21T09:41:58.713Z,35.63
2018-01-21T09:44:25.006Z,32.97
2018-01-21T09:46:51.265Z,34.03
2018-01-21T09:49:17.499Z,36.40
2018-01-21T09:51:43.758Z,37.17
2018-01-21T09:54:10.046Z,37.60
2018-01-21T09:56:36.348Z,36.37
2018-01-21T09:59:02.582Z,39.07
2018-01-21T10:01:28.812Z,37.10
2018-01-21T10:03:55.079Z,36.57
2018-01-21T10:06:21.404Z,39.33
2018-01-21T10:08:47.663Z,42.50
2018-01-21T10:11:14.621Z,32.63
2018-01-21T10:13:41.107Z,35.40
2018-01-21T10:16:07.390Z,40.93
2018-01-21T10:18:34.153Z,40.07
2018-01-21T10:21:00.431Z,32.60
2018-01-21T10:23:26.731Z,35.80
2018-01-21T10:25:53.279Z,41.00
2018-01-21T10:28:19.515Z,38.13
2018-01-21T10:30:45.771Z,40.07
2018-01-21T10:33:12.758Z,41.40
2018-01-21T10:35:39.081Z,42.07
2018-01-21T10:38:05.311Z,46.70
2018-01-21T10:40:31.660Z,39.37
2018-01-21T10:42:57.942Z,40.93
2018-01-21T10:45:24.952Z,43.73
2018-01-21T10:47:51.203Z,46.97
2018-01-21T10:50:17.564Z,45.13
2018-01-21T10:52:43.972Z,49.77
2018-01-21T10:55:11.108Z,44.07
2018-01-21T10:57:37.390Z,46.17
2018-01-21T11:00:03.854Z,42.97
2018-01-21T11:02:30.145Z,45.60
2018-01-21T11:04:56.392Z,49.50
2018-01-21T11:07:29.701Z,48.73
2018-01-21T11:09:55.985Z,47.37
2018-01-21T11:12:22.984Z,45.50
2018-01-21T11:14:49.263Z,50.03
2018-01-21T11:17:16.316Z,46.70
2018-01-21T11:19:42.605Z,50.27
2018-01-21T11:22:08.947Z,49.53
2018-01-21T11:24:35.436Z,61.30
2018-01-21T11:27:01.704Z,46.50
2018-01-21T11:29:27.935Z,50.77
2018-01-21T11:31:54.221Z,50.53
2018-01-21T11:34:20.494Z,54.90
2018-01-21T11:36:47.636Z,55.90
2018-01-21T11:39:13.898Z,54.27
2018-01-21T11:41:40.892Z,55.33
2018-01-21T11:44:07.152Z,55.63
2018-01-21T11:46:33.466Z,55.67
2018-01-21T11:48:59.766Z,60.00
2018-01-21T11:51:26.036Z,60.47
2018-01-21T11:53:52.409Z,64.97
2018-01-21T11:56:18.713Z,60.23
2018-01-21T11:58:44.985Z,60.37
2018-01-21T12:01:11.237Z,61.87
2018-01-21T12:03:37.515Z,64.10
2018-01-21T12:06:03.777Z,56.87
2018-01-21T12:08:30.069Z,58.70
2018-01-21T12:10:57.101Z,66.80
2018-01-21T12:13:23.371Z,69.87
2018-01-21T12:15:49.655Z,61.27
2018-01-21T12:18:15.939Z,72.07
2018-01-21T12:20:43.164Z,61.97
2018-01-21T12:23:10.168Z,64.50
2018-01-21T12:25:36.430Z,60.13
2018-01-21T12:28:03.708Z,62.60
2018-01-21T12:30:30.726Z,55.40
2018-01-21T12:32:56.974Z,63.80
2018-01-21T12:35:24.028Z,77.87
2018-01-21T12:37:51.067Z,65.87
2018-01-21T12:40:18.127Z,64.43
2018-01-21T12:42:45.191Z,67.80
2018-01-21T12:45:11.467Z,67.70
2018-01-21T12:47:37.743Z,66.20
2018-01-21T12:50:04.061Z,67.70
2018-01-21T12:52:31.100Z,69.57
2018-01-21T12:54:58.159Z,69.37
2018-01-21T12:57:25.191Z,70.07
2018-01-21T12:59:51.461Z,71.23
2018-01-21T13:02:18.315Z,69.17
2018-01-21T13:04:44.609Z,67.03
2018-01-21T13:07:11.612Z,61.40
2018-01-21T13:09:37.912Z,60.30
2018-01-21T13:12:04.198Z,62.53
2018-01-21T13:14:30.435Z,59.53
2018-01-21T13:16:56.744Z,59.73
2018-01-21T13:19:23.060Z,60.50
2018-01-21T13:21:49.332Z,69.87
2018-01-21T13:24:16.357Z,61.47
2018-01-21T13:26:42.640Z,77.63
2018-01-21T13:29:08.944Z,70.83
2018-01-21T13:31:35.927Z,70.57
2018-01-21T13:34:02.178Z,60.97
2018-01-21T13:36:28.664Z,64.00
2018-01-21T13:38:55.681Z,62.83
2018-01-21T13:41:29.244Z,59.70
2018-01-21T13:43:55.539Z,59.60
2018-01-21T13:46:22.562Z,61.67
2018-01-21T13:48:48.904Z,64.00
2018-01-21T13:51:15.925Z,63.70
2018-01-21T13:53:43.188Z,62.67
2018-01-21T13:56:09.517Z,54.77
2018-01-21T13:58:35.780Z,61.13
2018-01-21T14:01:02.813Z,50.90
2018-01-21T14:03:29.093Z,52.40
2018-01-21T14:05:55.433Z,63.80
2018-01-21T14:08:21.687Z,53.53
2018-01-21T14:10:48.009Z,57.00
2018-01-21T14:13:14.297Z,57.53
2018-01-21T14:15:40.631Z,58.50
2018-01-21T14:18:06.899Z,65.77
2018-01-21T14:20:33.143Z,58.10
2018-01-21T14:22:59.467Z,54.10
2018-01-21T14:25:25.725Z,63.73
2018-01-21T14:27:52.804Z,60.20
2018-01-21T14:30:19.072Z,58.53
2018-01-21T14:32:45.372Z,57.43
2018-01-21T14:35:11.696Z,62.60
2018-01-21T14:37:38.032Z,66.33
2018-01-21T14:40:04.505Z,65.30
2018-01-21T14:42:31.744Z,60.50
2018-01-21T14:44:58.036Z,60.27
2018-01-21T14:47:24.630Z,65.13
2018-01-21T14:49:51.042Z,63.57
2018-01-21T14:52:17.275Z,65.67
2018-01-21T14:54:43.622Z,67.77
2018-01-21T14:57:09.874Z,72.23
2018-01-21T14:59:36.882Z,76.23
2018-01-21T15:02:03.184Z,62.50
2018-01-21T15:04:29.436Z,66.50
2018-01-21T15:06:55.806Z,66.83
2018-01-21T15:09:22.843Z,61.57
2018-01-21T15:11:50.023Z,61.57
2018-01-21T15:14:17.027Z,69.83
2018-01-21T15:16:43.343Z,63.00
2018-01-21T15:19:09.681Z,67.03
2018-01-21T15:21:35.949Z,59.83
2018-01-21T15:24:02.997Z,65.43
2018-01-21T15:26:30.036Z,62.70
2018-01-21T15:28:56.330Z,64.00
2018-01-21T15:31:22.590Z,66.77
2018-01-21T15:33:48.852Z,67.97
2018-01-21T15:36:15.133Z,72.67
2018-01-21T15:38:41.576Z,65.10
2018-01-21T15:41:08.876Z,60.30
2018-01-21T15:43:36.050Z,65.43
2018-01-21T15:46:02.496Z,66.10
2018-01-21T15:48:28.829Z,71.93
2018-01-21T15:50:55.159Z,62.93
2018-01-21T15:53:21.514Z,70.17
2018-01-21T15:55:48.124Z,71.47
2018-01-21T15:58:14.527Z,67.10
2018-01-21T16:00:40.777Z,70.63
2018-01-21T16:03:07.043Z,66.33
2018-01-21T16:05:33.349Z,63.50
2018-01-21T16:07:59.622Z,61.97
2018-01-21T16:10:26.641Z,66.10
2018-01-21T16:12:59.240Z,61.27
2018-01-21T16:15:25.546Z,58.53
2018-01-21T16:17:52.721Z,64.40
2018-01-21T16:20:19.724Z,62.53
2018-01-21T16:22:46.192Z,65.00
2018-01-21T16:25:12.505Z,60.47
2018-01-21T16:27:39.609Z,59.80
2018-01-21T16:30:05.887Z,63.03
2018-01-21T16:32:32.163Z,60.73
2018-01-21T16:34:59.201Z,58.80
2018-01-21T16:37:45.076Z,57.57
2018-01-21T16:40:11.364Z,67.90
2018-01-21T16:42:37.637Z,64.00
2018-01-21T16:45:05.268Z,65.77
2018-01-21T16:47:31.568Z,66.13
2018-01-21T16:49:57.845Z,72.00
2018-01-21T16:52:24.134Z,71.80
2018-01-21T16:54:50.460Z,84.90
2018-01-21T16:57:17.401Z,83.10
2018-01-21T16:59:43.675Z,80.60
2018-01-21T17:02:09.950Z,83.53
2018-01-21T17:04:36.987Z,90.33
2018-01-21T17:07:04.080Z,76.63
2018-01-21T17:09:30.457Z,77.00
2018-01-21T17:11:56.766Z,71.93
2018-01-21T17:14:23.004Z,77.13
2018-01-21T17:17:04.526Z,74.80
2018-01-21T17:19:31.604Z,64.67
2018-01-21T17:21:57.912Z,76.37
2018-01-21T17:24:24.256Z,67.33
2018-01-21T17:26:50.891Z,62.90
2018-01-21T17:29:17.296Z,79.00
2018-01-21T17:31:44.377Z,75.23
2018-01-21T17:34:10.680Z,63.97
2018-01-21T17:36:37.747Z,79.90
2018-01-21T17:39:04.097Z,67.53
2018-01-21T17:41:30.449Z,70.63
2018-01-21T17:43:57.079Z,65.73
2018-01-21T17:46:23.486Z,72.33
2018-01-21T17:48:49.749Z,67.90
2018-01-21T17:51:16.052Z,61.60
2018-01-21T17:53:42.347Z,69.00
2018-01-21T17:56:09.391Z,70.47
2018-01-21T17:58:36.470Z,61.67
2018-01-21T18:01:02.756Z,77.87
2018-01-21T18:03:30.040Z,62.10
2018-01-21T18:05:57.106Z,66.33
2018-01-21T18:08:23.398Z,74.37
2018-01-21T18:10:50.495Z,82.47
2018-01-21T18:13:16.801Z,77.33
2018-01-21T18:15:43.826Z,78.20
2018-01-21T18:18:10.886Z,77.23
2018-01-21T18:20:37.893Z,89.77
2018-01-21T18:23:04.423Z,75.17
2018-01-21T18:25:30.753Z,78.53
2018-01-21T18:27:57.140Z,75.73
2018-01-21T18:30:23.442Z,80.13
2018-01-21T18:32:50.842Z,78.07
2018-01-21T18:35:17.212Z,81.03
2018-01-21T18:37:44.095Z,88.13
2018-01-21T18:40:11.138Z,83.80
2018-01-21T18:42:38.159Z,91.33
2018-01-21T18:45:04.552Z,83.20
2018-01-21T18:47:30.843Z,87.43
2018-01-21T18:49:58.684Z,80.67
2018-01-21T18:52:25.016Z,83.23
2018-01-21T18:54:51.348Z,89.70
2018-01-21T18:57:17.636Z,79.80
2018-01-21T18:59:43.907Z,75.13
2018-01-21T19:02:10.359Z,77.33
2018-01-21T19:04:37.446Z,76.63
2018-01-21T19:07:03.778Z,82.20
2018-01-21T19:09:30.078Z,75.03
2018-01-21T19:11:56.569Z,80.37
2018-01-21T19:14:23.004Z,76.53
2018-01-21T19:16:49.306Z,81.67
2018-01-21T19:19:16.337Z,80.77
2018-01-21T19:21:42.768Z,78.40
2018-01-21T19:24:09.788Z,79.97
2018-01-21T19:26:36.172Z,92.53
2018-01-21T19:29:02.531Z,87.90
2018-01-21T19:31:28.981Z,98.60
2018-01-21T19:33:56.100Z,105.67
2018-01-21T19:36:23.000Z,106.63
2018-01-21T19:38:50.865Z,79.07
2018-01-21T19:41:17.227Z,72.13
2018-01-21T19:43:45.437Z,74.97
2018-01-21T19:46:11.727Z,71.57
2018-01-21T19:48:38.103Z,73.20
2018-01-21T19:51:04.430Z,78.20
2018-01-21T19:53:32.072Z,74.60
2018-01-21T19:55:59.193Z,63.43
2018-01-21T19:58:27.440Z,74.57
2018-01-21T20:00:53.750Z,71.50
2018-01-21T20:03:20.076Z,74.47
2018-01-21T20:05:46.760Z,73.03
2018-01-21T20:08:13.314Z,74.70
2018-01-21T20:10:40.137Z,70.30
2018-01-21T20:13:09.317Z,79.53
2018-01-21T20:15:35.677Z,74.77
2018-01-21T20:18:02.725Z,78.10
2018-01-21T20:20:30.114Z,81.60
2018-01-21T20:22:56.454Z,72.30
2018-01-21T20:25:22.796Z,84.07
2018-01-21T20:27:50.006Z,85.40
2018-01-21T20:30:16.365Z,83.40
2018-01-21T20:32:42.894Z,84.10
2018-01-21T20:35:09.246Z,84.83
2018-01-21T20:37:35.556Z,82.53
2018-01-21T20:40:01.845Z,82.03
2018-01-21T20:42:28.986Z,76.97
2018-01-21T20:44:56.297Z,75.27
2018-01-21T20:47:22.725Z,77.57
2018-01-21T20:49:50.249Z,70.23
2018-01-21T20:52:23.494Z,71.90
2018-01-21T20:54:49.809Z,69.80
2018-01-21T20:57:16.234Z,67.67
2018-01-21T20:59:43.387Z,64.97
2018-01-21T21:02:09.697Z,61.47
2018-01-21T21:04:36.740Z,63.67
2018-01-21T21:07:04.765Z,61.47
2018-01-21T21:09:31.091Z,64.73
2018-01-21T21:11:57.380Z,63.07
2018-01-21T21:14:23.677Z,68.53
2018-01-21T21:16:50.805Z,64.40
2018-01-21T21:19:17.069Z,66.53
2018-01-21T21:21:44.099Z,69.60
2018-01-21T21:24:10.377Z,77.37
2018-01-21T21:26:36.660Z,67.70
2018-01-21T21:29:02.955Z,77.17
2018-01-21T21:31:29.252Z,70.90
2018-01-21T21:33:56.299Z,78.97
2018-01-21T21:36:23.272Z,67.30
2018-01-21T21:38:49.527Z,73.63
2018-01-21T21:41:15.820Z,76.60
2018-01-21T21:43:42.112Z,72.73
2018-01-21T21:46:08.482Z,73.47
2018-01-21T21:48:34.798Z,73.60
2018-01-21T21:51:02.040Z,86.60
2018-01-21T21:53:29.134Z,77.20
2018-01-21T21:55:55.407Z,89.77
2018-01-21T21:58:21.670Z,90.17
2018-01-21T22:00:48.019Z,81.13
2018-01-21T22:03:14.285Z,77.57
2018-01-21T22:05:40.737Z,82.80
2018-01-21T22:08:07.769Z,75.00
2018-01-21T22:10:34.065Z,78.57
2018-01-21T22:13:00.344Z,78.20
2018-01-21T22:15:28.099Z,72.90
2018-01-21T22:17:54.381Z,76.93
2018-01-21T22:20:20.674Z,80.70
2018-01-21T22:22:47.008Z,74.67
2018-01-21T22:25:13.592Z,72.33
2018-01-21T22:27:39.888Z,74.70
2018-01-21T22:30:06.896Z,72.87
2018-01-21T22:32:33.199Z,71.83
2018-01-21T22:35:00.341Z,69.20
2018-01-21T22:37:26.637Z,71.10
2018-01-21T22:39:53.596Z,67.40
2018-01-21T22:42:20.625Z,67.10
2018-01-21T22:44:46.894Z,70.60
2018-01-21T22:47:13.166Z,68.73
2018-01-21T22:49:39.423Z,73.23
2018-01-21T22:52:06.468Z,64.73
2018-01-21T22:54:33.486Z,67.73
2018-01-21T22:56:59.741Z,69.07
2018-01-21T22:59:26.790Z,66.20
2018-01-21T23:01:53.083Z,64.40
2018-01-21T23:04:19.380Z,59.60
2018-01-21T23:06:45.652Z,71.50
2018-01-21T23:09:11.936Z,60.20
2018-01-21T23:11:38.195Z,60.43
2018-01-21T23:14:04.411Z,60.03
2018-01-21T23:16:30.687Z,60.00
2018-01-21T23:18:56.917Z,60.40
2018-01-21T23:21:23.139Z,58.67
2018-01-21T23:23:49.419Z,53.93
2018-01-21T23:26:15.699Z,61.80
2018-01-21T23:28:41.974Z,54.80
2018-01-21T23:31:08.216Z,47.77
2018-01-21T23:33:34.491Z,57.77
2018-01-21T23:36:00.737Z,55.97
2018-01-21T23:38:27.772Z,67.33
2018-01-21T23:40:54.000Z,61.57
2018-01-21T23:43:27.419Z,59.73
2018-01-21T23:45:54.391Z,61.03
2018-01-21T23:48:20.675Z,64.57
2018-01-21T23:50:46.915Z,66.13
2018-01-21T23:53:13.926Z,53.50
2018-01-21T23:55:40.172Z,58.70
2018-01-21T23:58:06.407Z,53.50
